Etusivu
METAR-TAF:

METAR-TAF

Lentoasemat :

Kiruna, Ruotsi

Kiirunan lentoasema

Leveyspiiri: 67-49N, Pituuspiiri: 020-20E, korkeus merenpinnasta: 452 m

Tämänhetkinen sää

Tämä raportti tehtiin 31 minuuttia sitten, kello 20.20 UTC
Tuuli 5 kn koillisesta
Lämpötila 2°C
Kosteus 60%
Ilmanpaine 1018 hPa
Näkyvyys 10 km tai enemmän

METAR: ESNQ 262020Z AUTO 04005KT 9999 BKN045/// 02/M05 Q1018

Aika: 22:51 (20:51 UTC)

Sääennuste

Tämä raportti tehtiin 6 tuntia ja 21 minuuttia sitten, kello 14.30 UTC
Ennuste voimassa 26. päivästä klo 15 UTC - 26. päivään klo 18 UTC
Tuuli 8 kn pohjoisesta/koillisesta
Näkyvyys 10 km tai enemmän
ei pilviä alle 1500 m:ssä eikä cumulonimbus-pilviä

TAF: ESNQ 261430Z 2615/2618 02008KT CAVOK

Säähavainnot ja -ennusteet yli 4000 lentoasemalta (METAR- ja TAF-raportit).

Käytössä olevat sääasemat on merkitty karttaan keltaisilla ja punaisilla pisteillä.

Aseta hiiri pisteen päälle nähdäksesi sääaseman nimen.

Klikkaa sitten nähdäksesi säähavainnot ja -ennusteet.

Kartan vaihtaminen: klikkaa mustalla rastilla varustettuja vihreitä pisteitä, niin voit zoomata sisään; viivalla varustettua vihreää pistettä, niin voit zoomata ulos tai vihreitä nuolia, niin pääset viereisille kartoille.


METAR-TAF: